createdAt,value
2023-05-12T00:01:20.080Z,101740.41
2023-05-12T00:03:47.380Z,101736.22
2023-05-12T00:06:14.563Z,101748.41
2023-05-12T00:08:41.590Z,101741.69
2023-05-12T00:11:08.688Z,101744.44
2023-05-12T00:13:35.793Z,101742.53
2023-05-12T00:16:03.625Z,101746.78
2023-05-12T00:18:30.804Z,101751.50
2023-05-12T00:20:58.264Z,101746.88
2023-05-12T00:23:25.248Z,101750.31
2023-05-12T00:25:52.297Z,101751.38
2023-05-12T00:28:19.472Z,101744.56
2023-05-12T00:30:46.500Z,101746.50
2023-05-12T00:33:13.574Z,101755.78
2023-05-12T00:35:40.530Z,101754.94
2023-05-12T00:38:07.613Z,101758.47
2023-05-12T00:40:34.616Z,101761.88
2023-05-12T00:43:01.675Z,101765.47
2023-05-12T00:45:32.175Z,101757.22
2023-05-12T00:47:59.341Z,101762.88
2023-05-12T00:50:26.635Z,101765.66
2023-05-12T00:52:53.738Z,101774.72
2023-05-12T00:55:21.122Z,101775.16
2023-05-12T00:57:48.138Z,101763.88
2023-05-12T01:00:15.312Z,101766.66
2023-05-12T01:02:42.647Z,101757.47
2023-05-12T01:05:10.188Z,101759.81
2023-05-12T01:07:39.115Z,101759.28
2023-05-12T01:10:18.009Z,101761.50
2023-05-12T01:12:45.272Z,101768.00
2023-05-12T01:15:13.163Z,101762.94
2023-05-12T01:17:47.177Z,101773.03
2023-05-12T01:20:16.919Z,101776.88
2023-05-12T01:22:44.272Z,101777.97
2023-05-12T01:25:13.108Z,101770.94
2023-05-12T01:27:41.450Z,101775.53
2023-05-12T01:30:09.910Z,101774.91
2023-05-12T01:32:38.828Z,101785.97
2023-05-12T01:35:06.202Z,101783.53
2023-05-12T01:37:33.326Z,101790.25
2023-05-12T01:40:00.440Z,101782.75
2023-05-12T01:42:27.592Z,101776.72
2023-05-12T01:44:54.558Z,101782.47
2023-05-12T01:47:21.890Z,101782.34
2023-05-12T01:49:49.105Z,101787.16
2023-05-12T01:52:16.065Z,101788.84
2023-05-12T01:54:43.207Z,101784.19
2023-05-12T01:57:10.218Z,101798.84
2023-05-12T01:59:37.375Z,101794.28
2023-05-12T02:02:04.586Z,101799.41
2023-05-12T02:04:31.595Z,101805.06
2023-05-12T02:06:58.679Z,101802.47
2023-05-12T02:09:25.704Z,101801.63
2023-05-12T02:11:52.859Z,101799.50
2023-05-12T02:14:19.928Z,101796.75
2023-05-12T02:16:50.155Z,101793.31
2023-05-12T02:19:17.127Z,101808.66
2023-05-12T02:21:46.252Z,101806.75
2023-05-12T02:24:14.904Z,101802.28
2023-05-12T02:26:42.289Z,101805.69
2023-05-12T02:29:10.544Z,101808.78
2023-05-12T02:31:37.685Z,101801.31
2023-05-12T02:34:06.653Z,101809.28
2023-05-12T02:36:34.005Z,101798.84
2023-05-12T02:39:01.098Z,101803.44
2023-05-12T02:41:28.569Z,101796.84
2023-05-12T02:43:55.520Z,101808.75
2023-05-12T02:46:22.585Z,101806.53
2023-05-12T02:48:49.616Z,101806.75
2023-05-12T02:51:16.667Z,101803.34
2023-05-12T02:53:43.631Z,101803.97
2023-05-12T02:56:10.579Z,101812.63
2023-05-12T02:58:37.737Z,101808.56
2023-05-12T03:01:10.698Z,101807.19
2023-05-12T03:03:39.088Z,101807.06
2023-05-12T03:06:06.942Z,101807.72
2023-05-12T03:08:34.051Z,101809.63
2023-05-12T03:11:01.120Z,101800.91
2023-05-12T03:13:28.068Z,101808.13
2023-05-12T03:15:55.926Z,101806.53
2023-05-12T03:18:22.996Z,101802.59
2023-05-12T03:20:50.034Z,101803.63
2023-05-12T03:23:17.227Z,101813.03
2023-05-12T03:25:44.223Z,101821.34
2023-05-12T03:28:11.702Z,101812.72
2023-05-12T03:30:38.769Z,101830.50
2023-05-12T03:33:05.807Z,101831.13
2023-05-12T03:35:32.761Z,101829.97
2023-05-12T03:37:59.808Z,101840.41
2023-05-12T03:40:26.993Z,101834.66
2023-05-12T03:42:54.004Z,101824.94
2023-05-12T03:45:21.500Z,101820.38
2023-05-12T03:47:48.676Z,101826.75
2023-05-12T03:50:15.831Z,101827.00
2023-05-12T03:52:42.838Z,101828.69
2023-05-12T03:55:10.652Z,101830.50
2023-05-12T03:57:38.343Z,101835.72
2023-05-12T04:00:08.925Z,101840.38
2023-05-12T04:02:35.938Z,101844.47
2023-05-12T04:05:03.003Z,101839.97
2023-05-12T04:07:30.020Z,101846.88
2023-05-12T04:09:57.020Z,101850.63
2023-05-12T04:12:24.296Z,101846.16
2023-05-12T04:14:51.828Z,101842.31
2023-05-12T04:17:21.564Z,101853.69
2023-05-12T04:19:48.667Z,101859.34
2023-05-12T04:22:15.777Z,101860.31
2023-05-12T04:24:42.708Z,101869.69
2023-05-12T04:27:09.784Z,101865.22
2023-05-12T04:29:37.232Z,101857.53
2023-05-12T04:32:04.540Z,101868.50
2023-05-12T04:34:31.705Z,101870.44
2023-05-12T04:36:58.634Z,101873.00
2023-05-12T04:39:25.717Z,101873.84
2023-05-12T04:41:52.701Z,101874.59
2023-05-12T04:44:19.675Z,101877.47
2023-05-12T04:46:46.661Z,101874.81
2023-05-12T04:49:13.637Z,101881.94
2023-05-12T04:51:43.075Z,101889.09
2023-05-12T04:54:10.619Z,101886.81
2023-05-12T04:56:37.863Z,101888.22
2023-05-12T04:59:05.040Z,101895.38
2023-05-12T05:01:32.216Z,101897.81
2023-05-12T05:03:59.257Z,101899.84
2023-05-12T05:06:26.309Z,101896.19
2023-05-12T05:08:53.361Z,101899.06
2023-05-12T05:11:22.014Z,101894.50
2023-05-12T05:13:49.069Z,101908.34
2023-05-12T05:16:16.140Z,101917.19
2023-05-12T05:18:46.685Z,101918.66
2023-05-12T05:21:16.927Z,101913.66
2023-05-12T05:23:43.919Z,101918.34
2023-05-12T05:26:10.985Z,101915.06
2023-05-12T05:28:40.129Z,101921.69
2023-05-12T05:31:07.727Z,101923.50
2023-05-12T05:33:34.800Z,101932.41
2023-05-12T05:36:01.973Z,101935.09
2023-05-12T05:38:29.028Z,101932.72
2023-05-12T05:40:56.165Z,101935.50
2023-05-12T05:43:23.284Z,101931.56
2023-05-12T05:45:50.850Z,101935.06
2023-05-12T05:48:18.284Z,101943.81
2023-05-12T05:50:45.423Z,101946.69
2023-05-12T05:53:12.394Z,101940.53
2023-05-12T05:55:39.431Z,101939.25
2023-05-12T05:58:06.380Z,101943.72
2023-05-12T06:00:33.373Z,101939.75
2023-05-12T06:03:00.494Z,101945.72
2023-05-12T06:05:27.729Z,101949.03
2023-05-12T06:07:54.828Z,101948.81
2023-05-12T06:10:22.403Z,101950.09
2023-05-12T06:12:50.650Z,101947.72
2023-05-12T06:15:18.892Z,101963.50
2023-05-12T06:17:46.216Z,101958.03
2023-05-12T06:20:13.664Z,101956.41
2023-05-12T06:22:42.546Z,101959.09
2023-05-12T06:25:09.837Z,101962.25
2023-05-12T06:27:36.939Z,101971.00
2023-05-12T06:30:04.508Z,101969.34
2023-05-12T06:32:31.690Z,101982.13
2023-05-12T06:34:59.064Z,101967.38
2023-05-12T06:37:26.040Z,101978.69
2023-05-12T06:39:53.101Z,101985.38
2023-05-12T06:42:20.107Z,101985.25
2023-05-12T06:44:47.152Z,101978.78
2023-05-12T06:47:14.124Z,101979.25
2023-05-12T06:49:41.140Z,101978.31
2023-05-12T06:52:08.164Z,101981.16
2023-05-12T06:54:35.210Z,101983.22
2023-05-12T06:57:02.214Z,101981.75
2023-05-12T06:59:29.276Z,101988.41
2023-05-12T07:01:56.404Z,101990.44
2023-05-12T07:04:24.515Z,101989.19
2023-05-12T07:06:52.728Z,102000.25
2023-05-12T07:09:19.982Z,102001.50
2023-05-12T07:11:47.240Z,101994.09
2023-05-12T07:14:14.251Z,101996.28
2023-05-12T07:16:41.269Z,101991.47
2023-05-12T07:19:09.777Z,102004.63
2023-05-12T07:21:37.333Z,102005.59
2023-05-12T07:24:06.285Z,102006.44
2023-05-12T07:26:33.576Z,101998.69
2023-05-12T07:29:01.332Z,101998.94
2023-05-12T07:31:29.007Z,101994.91
2023-05-12T07:33:56.208Z,101989.72
2023-05-12T07:36:23.367Z,101997.34
2023-05-12T07:38:50.441Z,101997.50
2023-05-12T07:41:18.163Z,102003.09
2023-05-12T07:43:45.700Z,101994.50
2023-05-12T07:46:12.874Z,101998.13
2023-05-12T07:48:40.587Z,102003.13
2023-05-12T07:51:08.059Z,102002.63
2023-05-12T07:53:35.626Z,102007.47
2023-05-12T07:56:02.815Z,102004.06
2023-05-12T07:58:30.062Z,102003.56
2023-05-12T08:00:59.281Z,102014.03
2023-05-12T08:03:26.615Z,102011.06
2023-05-12T08:05:53.721Z,102012.44
2023-05-12T08:08:20.756Z,102004.84
2023-05-12T08:10:47.741Z,102012.50
2023-05-12T08:13:14.752Z,102021.13
2023-05-12T08:15:41.785Z,102012.00
2023-05-12T08:18:09.107Z,102016.53
2023-05-12T08:20:36.286Z,102019.06
2023-05-12T08:23:03.298Z,102013.22
2023-05-12T08:25:30.817Z,102010.88
2023-05-12T08:27:59.503Z,102007.81
2023-05-12T08:30:27.355Z,102011.50
2023-05-12T08:32:57.473Z,102005.25
2023-05-12T08:35:26.684Z,102005.88
2023-05-12T08:37:53.842Z,102018.81
2023-05-12T08:40:23.368Z,102023.03
2023-05-12T08:43:18.587Z,102016.56
2023-05-12T08:45:47.339Z,102011.94
2023-05-12T08:48:17.202Z,102016.41
2023-05-12T08:50:44.993Z,102018.81
2023-05-12T08:53:13.882Z,102015.03
2023-05-12T08:55:58.413Z,102011.88
2023-05-12T08:58:40.993Z,102020.38
2023-05-12T09:01:12.363Z,102016.06
2023-05-12T09:03:42.487Z,102017.38
2023-05-12T09:06:11.646Z,102015.41
2023-05-12T09:08:39.599Z,102012.47
2023-05-12T09:11:08.809Z,102017.78
2023-05-12T09:14:01.112Z,102012.78
2023-05-12T09:16:31.633Z,102023.56
2023-05-12T09:19:00.879Z,102027.84
2023-05-12T09:21:28.796Z,102030.97
2023-05-12T09:24:01.298Z,102021.38
2023-05-12T09:26:29.164Z,102023.06
2023-05-12T09:29:08.957Z,102026.59
2023-05-12T09:31:36.582Z,102029.28
2023-05-12T09:34:10.444Z,102025.22
2023-05-12T09:36:37.675Z,102028.22
2023-05-12T09:39:07.365Z,102027.34
2023-05-12T09:41:38.799Z,102033.13
2023-05-12T09:44:07.145Z,102031.88
2023-05-12T09:46:35.209Z,102030.19
2023-05-12T09:49:05.421Z,102027.03
2023-05-12T09:51:32.681Z,102031.50
2023-05-12T09:54:00.946Z,102030.56
2023-05-12T09:56:31.520Z,102031.88
2023-05-12T09:58:58.985Z,102035.69
2023-05-12T10:01:27.267Z,102031.78
2023-05-12T10:03:57.190Z,102030.41
2023-05-12T10:06:30.678Z,102037.63
2023-05-12T10:09:16.622Z,102035.34
2023-05-12T10:11:44.852Z,102039.56
2023-05-12T10:14:13.594Z,102033.53
2023-05-12T10:16:41.663Z,102024.78
2023-05-12T10:19:09.764Z,102035.41
2023-05-12T10:21:38.274Z,102030.19
2023-05-12T10:24:05.692Z,102025.84
2023-05-12T10:26:35.089Z,102020.78
2023-05-12T10:29:02.477Z,102024.03
2023-05-12T10:31:30.402Z,102024.16
2023-05-12T10:34:02.025Z,102016.41
2023-05-12T10:36:29.710Z,102029.25
2023-05-12T10:39:05.826Z,102019.81
2023-05-12T10:41:34.787Z,102027.88
2023-05-12T10:44:01.782Z,102024.03
2023-05-12T10:46:30.700Z,102021.66
2023-05-12T10:49:07.001Z,102020.81
2023-05-12T10:51:43.288Z,102026.63
2023-05-12T10:54:12.678Z,102027.09
2023-05-12T10:56:40.183Z,102014.22
2023-05-12T10:59:28.896Z,102029.22
2023-05-12T11:01:58.954Z,102019.41
2023-05-12T11:04:56.137Z,102026.94
2023-05-12T11:07:27.239Z,102023.25
2023-05-12T11:09:59.263Z,102025.63
2023-05-12T11:12:33.059Z,102027.63
2023-05-12T11:15:01.710Z,102026.22
2023-05-12T11:17:29.938Z,102022.69
2023-05-12T11:19:57.120Z,102019.00
2023-05-12T11:22:24.615Z,102025.97
2023-05-12T11:24:53.114Z,102021.09
2023-05-12T11:27:23.344Z,102025.19
2023-05-12T11:29:58.677Z,102020.66
2023-05-12T11:32:25.876Z,102027.63
2023-05-12T11:34:53.310Z,102025.06
2023-05-12T11:37:21.486Z,102022.91
2023-05-12T11:39:48.892Z,102022.88
2023-05-12T11:42:17.716Z,102014.38
2023-05-12T11:44:50.648Z,102017.84
2023-05-12T11:47:20.050Z,102020.38
2023-05-12T11:49:58.215Z,102016.25
2023-05-12T11:52:30.682Z,102008.84
2023-05-12T11:55:01.078Z,102004.56
2023-05-12T11:57:32.847Z,102015.19
2023-05-12T12:00:02.424Z,102011.09
2023-05-12T12:02:33.541Z,102016.25
2023-05-12T12:05:03.466Z,102017.63
2023-05-12T12:07:37.652Z,102016.34
2023-05-12T12:10:18.520Z,102014.06
2023-05-12T12:12:46.402Z,102015.63
2023-05-12T12:15:15.868Z,102014.09
2023-05-12T12:17:42.868Z,102020.38
2023-05-12T12:20:13.286Z,102026.03
2023-05-12T12:22:43.308Z,102023.31
2023-05-12T12:25:10.269Z,102014.09
2023-05-12T12:27:39.760Z,102011.56
2023-05-12T12:30:07.467Z,102017.63
2023-05-12T12:32:34.455Z,102015.50
2023-05-12T12:35:06.844Z,102015.88
2023-05-12T12:37:33.809Z,102007.13
2023-05-12T12:40:08.074Z,102016.66
2023-05-12T12:42:36.327Z,102016.66
2023-05-12T12:45:05.222Z,102014.38
2023-05-12T12:47:32.435Z,102018.16
2023-05-12T12:49:59.998Z,102014.28
2023-05-12T12:52:29.767Z,102013.69
2023-05-12T12:54:57.581Z,102009.25
2023-05-12T12:57:31.894Z,102003.16
2023-05-12T12:59:58.812Z,102005.41
2023-05-12T13:02:30.647Z,102005.66
2023-05-12T13:04:57.796Z,102012.41
2023-05-12T13:07:27.331Z,102008.50
2023-05-12T13:09:54.400Z,102002.03
2023-05-12T13:12:21.414Z,101999.25
2023-05-12T13:14:48.457Z,102005.69
2023-05-12T13:17:18.230Z,101997.16
2023-05-12T13:19:45.198Z,102005.81
2023-05-12T13:22:13.371Z,102001.78
2023-05-12T13:24:40.338Z,102008.31
2023-05-12T13:27:10.059Z,102018.06
2023-05-12T13:29:37.334Z,102009.31
2023-05-12T13:32:07.078Z,102013.72
2023-05-12T13:34:34.090Z,102015.31
2023-05-12T13:37:04.080Z,102012.09
2023-05-12T13:39:33.411Z,102016.16
2023-05-12T13:42:00.653Z,102011.63
2023-05-12T13:44:31.267Z,102005.94
2023-05-12T13:46:58.284Z,102003.94
2023-05-12T13:49:31.241Z,102002.88
2023-05-12T13:51:58.235Z,102003.72
2023-05-12T13:54:25.476Z,102005.84
2023-05-12T13:56:54.648Z,101997.16
2023-05-12T13:59:21.752Z,101995.47
2023-05-12T14:01:49.018Z,101988.69
2023-05-12T14:04:16.500Z,101989.41
2023-05-12T14:06:46.217Z,101993.06
2023-05-12T14:09:14.395Z,101979.06
2023-05-12T14:11:41.442Z,101980.94
2023-05-12T14:14:08.474Z,101982.91
2023-05-12T14:16:36.970Z,101987.06
2023-05-12T14:19:04.147Z,101983.84
2023-05-12T14:21:31.159Z,101981.50
2023-05-12T14:23:58.204Z,101973.19
2023-05-12T14:26:26.273Z,101980.44
2023-05-12T14:28:53.405Z,101984.00
2023-05-12T14:31:20.605Z,101981.00
2023-05-12T14:33:47.648Z,101981.34
2023-05-12T14:36:14.617Z,101978.28
2023-05-12T14:38:42.875Z,101985.63
2023-05-12T14:41:09.971Z,101978.91
2023-05-12T14:43:37.334Z,101973.44
2023-05-12T14:46:04.691Z,101976.03
2023-05-12T14:48:32.050Z,101974.81
2023-05-12T14:50:59.191Z,101982.00
2023-05-12T14:53:26.364Z,101978.59
2023-05-12T14:55:53.368Z,101974.25
2023-05-12T14:58:22.332Z,101979.69
2023-05-12T15:00:52.372Z,101985.34
2023-05-12T15:03:21.625Z,101984.81
2023-05-12T15:08:21.905Z,101983.28
2023-05-12T15:10:49.174Z,101983.41
2023-05-12T15:13:18.413Z,101987.25
2023-05-12T15:15:45.820Z,101993.09
2023-05-12T15:18:12.819Z,101991.41
2023-05-12T15:20:39.980Z,101989.44
2023-05-12T15:23:07.044Z,101988.41
2023-05-12T15:25:34.149Z,101983.88
2023-05-12T15:28:01.146Z,101993.34
2023-05-12T15:30:28.209Z,101993.41
2023-05-12T15:32:55.296Z,101983.09
2023-05-12T15:35:22.925Z,101983.09
2023-05-12T15:37:50.127Z,101987.19
2023-05-12T15:40:17.437Z,101999.84
2023-05-12T15:42:44.687Z,101991.50
2023-05-12T15:45:11.784Z,101981.22
2023-05-12T15:47:38.869Z,101976.53
2023-05-12T15:50:06.594Z,101986.00
2023-05-12T15:52:33.633Z,101988.38
2023-05-12T15:55:01.155Z,101990.44
2023-05-12T15:57:28.192Z,101995.66
2023-05-12T15:59:59.082Z,101985.53
2023-05-12T16:02:26.475Z,101987.84
2023-05-12T16:04:53.641Z,101999.56
2023-05-12T16:07:20.921Z,101987.97
2023-05-12T16:09:47.924Z,101990.03
2023-05-12T16:12:15.648Z,101999.50
2023-05-12T16:14:42.671Z,101994.44
2023-05-12T16:17:09.749Z,101991.69
2023-05-12T16:19:36.745Z,101992.88
2023-05-12T16:22:03.770Z,101986.00
2023-05-12T16:24:30.700Z,101987.16
2023-05-12T16:26:59.460Z,101984.97
2023-05-12T16:29:26.949Z,101984.97
2023-05-12T16:31:53.934Z,101981.75
2023-05-12T16:34:21.343Z,101984.50
2023-05-12T16:36:49.041Z,101985.47
2023-05-12T16:39:16.091Z,101984.63
2023-05-12T16:41:43.036Z,101984.13
2023-05-12T16:44:10.143Z,101984.63
2023-05-12T16:46:39.302Z,101980.06
2023-05-12T16:49:07.701Z,101979.22
2023-05-12T16:51:35.771Z,101983.78
2023-05-12T16:54:02.733Z,101979.56
2023-05-12T16:56:29.687Z,101986.81
2023-05-12T16:58:56.741Z,101988.50
2023-05-12T17:01:23.795Z,101988.66
2023-05-12T17:03:51.217Z,101986.13
2023-05-12T17:06:18.268Z,101989.50
2023-05-12T17:08:45.309Z,101995.56
2023-05-12T17:11:12.286Z,101997.09
2023-05-12T17:13:39.340Z,101996.63
2023-05-12T17:16:07.008Z,101989.00
2023-05-12T17:19:13.671Z,101994.63
2023-05-12T17:21:21.003Z,101995.31
2023-05-12T17:23:48.466Z,101999.38
2023-05-12T17:26:15.885Z,101997.06
2023-05-12T17:28:43.305Z,102000.22
2023-05-12T17:31:10.796Z,102003.78
2023-05-12T17:33:37.850Z,102012.50
2023-05-12T17:36:12.461Z,102011.44
2023-05-12T17:38:41.105Z,102010.66
2023-05-12T17:41:08.121Z,102019.19
2023-05-12T17:43:35.100Z,102014.53
2023-05-12T17:46:03.093Z,102014.84
2023-05-12T17:48:33.457Z,102013.91
2023-05-12T17:51:01.511Z,102022.91
2023-05-12T17:53:29.185Z,102019.25
2023-05-12T17:55:56.201Z,102022.56
2023-05-12T17:58:23.575Z,102019.63
2023-05-12T18:00:50.739Z,102016.06
2023-05-12T18:03:23.505Z,102030.13
2023-05-12T18:05:52.282Z,102023.25
2023-05-12T18:08:19.310Z,102028.38
2023-05-12T18:10:46.855Z,102029.94
2023-05-12T18:13:14.880Z,102034.63
2023-05-12T18:15:42.098Z,102044.00
2023-05-12T18:18:10.304Z,102036.19
2023-05-12T18:20:37.391Z,102035.91
2023-05-12T18:23:04.499Z,102036.19
2023-05-12T18:25:31.582Z,102042.03
2023-05-12T18:27:58.567Z,102042.63
2023-05-12T18:30:25.691Z,102034.00
2023-05-12T18:32:52.903Z,102039.81
2023-05-12T18:35:20.142Z,102036.84
2023-05-12T18:37:47.362Z,102035.56
2023-05-12T18:40:14.631Z,102033.59
2023-05-12T18:42:41.712Z,102034.03
2023-05-12T18:45:09.126Z,102048.75
2023-05-12T18:47:36.229Z,102045.63
2023-05-12T18:50:04.391Z,102050.88
2023-05-12T18:52:31.453Z,102050.44
2023-05-12T18:54:58.610Z,102050.03
2023-05-12T18:57:25.755Z,102055.06
2023-05-12T18:59:52.890Z,102062.81
2023-05-12T19:02:19.932Z,102067.50
2023-05-12T19:04:47.040Z,102074.00
2023-05-12T19:07:15.637Z,102071.31
2023-05-12T19:09:43.526Z,102078.06
2023-05-12T19:12:13.409Z,102077.38
2023-05-12T19:14:40.979Z,102075.06
2023-05-12T19:17:08.047Z,102076.63
2023-05-12T19:19:35.165Z,102083.25
2023-05-12T19:22:04.256Z,102076.44
2023-05-12T19:24:31.637Z,102089.28
2023-05-12T19:26:58.725Z,102088.84
2023-05-12T19:29:26.292Z,102091.97
2023-05-12T19:31:53.839Z,102087.97
2023-05-12T19:34:21.680Z,102091.91
2023-05-12T19:36:48.783Z,102097.69
2023-05-12T19:39:15.779Z,102099.06
2023-05-12T19:41:42.974Z,102098.75
2023-05-12T19:44:09.899Z,102106.19
2023-05-12T19:46:37.018Z,102098.53
2023-05-12T19:49:04.426Z,102099.66
2023-05-12T19:51:32.177Z,102104.56
2023-05-12T19:53:59.627Z,102115.97
2023-05-12T19:56:27.311Z,102102.22
2023-05-12T19:58:54.281Z,102110.41
2023-05-12T20:01:21.478Z,102112.59
2023-05-12T20:03:48.652Z,102111.91
2023-05-12T20:06:15.778Z,102121.03
2023-05-12T20:08:42.746Z,102129.47
2023-05-12T20:11:09.903Z,102127.59
2023-05-12T20:13:36.948Z,102131.38
2023-05-12T20:16:04.299Z,102131.47
2023-05-12T20:18:31.477Z,102132.25
2023-05-12T20:20:58.524Z,102131.81
2023-05-12T20:23:25.666Z,102133.75
2023-05-12T20:25:53.414Z,102133.28
2023-05-12T20:28:21.528Z,102124.66
2023-05-12T20:30:48.528Z,102124.03
2023-05-12T20:33:15.661Z,102136.25
2023-05-12T20:35:42.634Z,102135.00
2023-05-12T20:38:09.654Z,102138.44
2023-05-12T20:40:36.627Z,102142.34
2023-05-12T20:43:03.897Z,102143.91
2023-05-12T20:45:30.893Z,102135.28
2023-05-12T20:47:57.920Z,102138.09
2023-05-12T20:50:27.013Z,102147.34
2023-05-12T20:52:54.025Z,102149.41
2023-05-12T20:55:21.259Z,102150.66
2023-05-12T20:57:48.428Z,102152.72
2023-05-12T21:00:15.815Z,102147.00
2023-05-12T21:02:42.926Z,102149.34
2023-05-12T21:05:10.444Z,102150.41
2023-05-12T21:07:37.497Z,102149.06
2023-05-12T21:10:04.889Z,102149.06
2023-05-12T21:12:31.917Z,102145.19
2023-05-12T21:14:58.957Z,102152.84
2023-05-12T21:17:26.061Z,102148.81
2023-05-12T21:19:53.074Z,102154.53
2023-05-12T21:22:20.439Z,102158.41
2023-05-12T21:24:47.803Z,102158.88
2023-05-12T21:27:15.892Z,102153.91
2023-05-12T21:29:43.011Z,102164.72
2023-05-12T21:32:10.007Z,102161.53
2023-05-12T21:34:37.094Z,102165.28
2023-05-12T21:37:04.161Z,102164.06
2023-05-12T21:39:31.334Z,102160.53
2023-05-12T21:41:58.322Z,102172.44
2023-05-12T21:44:25.513Z,102174.25
2023-05-12T21:46:52.515Z,102170.13
2023-05-12T21:49:19.589Z,102176.41
2023-05-12T21:51:46.633Z,102170.34
2023-05-12T21:54:13.638Z,102171.56
2023-05-12T21:56:40.730Z,102176.28
2023-05-12T21:59:07.718Z,102172.22
2023-05-12T22:01:34.802Z,102176.72
2023-05-12T22:04:01.965Z,102183.41
2023-05-12T22:06:29.067Z,102174.13
2023-05-12T22:08:56.138Z,102174.59
2023-05-12T22:11:23.717Z,102188.16
2023-05-12T22:13:51.284Z,102186.47
2023-05-12T22:16:20.020Z,102190.34
2023-05-12T22:18:51.043Z,102190.56
2023-05-12T22:21:18.030Z,102182.19
2023-05-12T22:23:45.077Z,102187.25
2023-05-12T22:26:12.074Z,102190.91
2023-05-12T22:28:39.076Z,102194.91
2023-05-12T22:31:06.140Z,102198.50
2023-05-12T22:33:34.751Z,102200.53
2023-05-12T22:36:01.869Z,102206.88
2023-05-12T22:38:28.862Z,102194.47
2023-05-12T22:40:56.059Z,102209.03
2023-05-12T22:43:23.039Z,102206.03
2023-05-12T22:45:53.137Z,102199.75
2023-05-12T22:48:20.402Z,102197.28
2023-05-12T22:50:47.657Z,102208.53
2023-05-12T22:53:15.007Z,102207.69
2023-05-12T22:55:42.064Z,102217.41
2023-05-12T22:58:10.468Z,102208.66
2023-05-12T23:00:37.846Z,102206.59
2023-05-12T23:03:05.069Z,102213.88
2023-05-12T23:05:32.180Z,102207.78
2023-05-12T23:07:59.164Z,102206.50
2023-05-12T23:10:26.257Z,102213.16
2023-05-12T23:12:53.261Z,102209.84
2023-05-12T23:15:20.510Z,102209.41
2023-05-12T23:17:47.654Z,102206.66
2023-05-12T23:20:14.714Z,102208.22
2023-05-12T23:22:41.698Z,102211.09
2023-05-12T23:25:09.286Z,102207.81
2023-05-12T23:27:37.220Z,102209.22
2023-05-12T23:30:04.931Z,102202.91
2023-05-12T23:32:32.303Z,102203.97
2023-05-12T23:34:59.481Z,102199.59
2023-05-12T23:37:26.881Z,102202.59
2023-05-12T23:39:53.944Z,102197.59
2023-05-12T23:42:21.353Z,102198.63
2023-05-12T23:44:48.397Z,102205.03
2023-05-12T23:47:15.405Z,102204.38
2023-05-12T23:49:42.388Z,102201.84
2023-05-12T23:52:09.443Z,102202.38
2023-05-12T23:54:36.420Z,102198.41
2023-05-12T23:57:03.771Z,102201.72
2023-05-12T23:59:31.032Z,102193.72
